Johstadt, Germany
Current Conditions -  °F | °C
As of 6:00 PM on Wednesday 26 Nov 2014 (Local Time) from LKKV Reporting Station
Overcast Overcast  
Wind Chill: 24°   Ceiling: 1100
Heat Index: 34°   Visibility: 6mi
Dew Point: 28°   Wind: 14mph
Humidity: 81%   Direction: 100°E
Pressure: 30.03"   Gusts: NA
Location:  50.55°N, 13.13°E
Report Text: LKKV 261700Z 10012KT 9999 OVC011 01/M02 Q1017
Loading
Personal Weather Stations






























Interactive Weather Map New forecast layout! Learn more

10-Day Weather Forecast

Advertisements
Track Severe Weather on mobile